sensor_id;sensor_type;location;lat;lon;timestamp;temperature;humidity
1123;DHT22;548;48.778;9.252;2023-04-30T02:40:54;12.40;99.90
1123;DHT22;548;48.778;9.252;2023-04-30T02:43:21;12.40;99.90
1123;DHT22;548;48.778;9.252;2023-04-30T02:45:48;12.40;99.90
1123;DHT22;548;48.778;9.252;2023-04-30T02:48:15;12.40;99.90
1123;DHT22;548;48.778;9.252;2023-04-30T02:50:41;12.40;99.90
1123;DHT22;548;48.778;9.252;2023-04-30T02:53:08;12.40;99.90
1123;DHT22;548;48.778;9.252;2023-04-30T02:55:35;12.50;99.90
1123;DHT22;548;48.778;9.252;2023-04-30T02:58:03;12.50;99.90
1123;DHT22;548;48.778;9.252;2023-04-30T03:00:29;12.50;99.90
1123;DHT22;548;48.778;9.252;2023-04-30T03:02:56;12.50;99.90
1123;DHT22;548;48.778;9.252;2023-04-30T03:05:23;12.40;99.90
1123;DHT22;548;48.778;9.252;2023-04-30T03:07:49;12.40;99.90
1123;DHT22;548;48.778;9.252;2023-04-30T03:10:16;12.40;99.90
1123;DHT22;548;48.778;9.252;2023-04-30T03:12:43;12.40;99.90
1123;DHT22;548;48.778;9.252;2023-04-30T03:15:11;12.50;99.90
1123;DHT22;548;48.778;9.252;2023-04-30T03:17:38;12.40;99.90
1123;DHT22;548;48.778;9.252;2023-04-30T03:20:06;12.30;99.90
1123;DHT22;548;48.778;9.252;2023-04-30T03:22:33;12.40;99.90
1123;DHT22;548;48.778;9.252;2023-04-30T03:24:59;12.40;99.90
1123;DHT22;548;48.778;9.252;2023-04-30T03:27:26;12.40;99.90
1123;DHT22;548;48.778;9.252;2023-04-30T03:29:52;12.40;99.90
1123;DHT22;548;48.778;9.252;2023-04-30T03:32:20;12.30;99.90
1123;DHT22;548;48.778;9.252;2023-04-30T03:34:47;12.30;99.90
1123;DHT22;548;48.778;9.252;2023-04-30T03:37:14;12.20;99.90
1123;DHT22;548;48.778;9.252;2023-04-30T03:39:40;12.00;99.90
1123;DHT22;548;48.778;9.252;2023-04-30T03:42:07;12.00;99.90
1123;DHT22;548;48.778;9.252;2023-04-30T03:44:34;11.90;99.90
1123;DHT22;548;48.778;9.252;2023-04-30T03:47:02;12.00;99.90
1123;DHT22;548;48.778;9.252;2023-04-30T03:49:30;11.90;99.90
1123;DHT22;548;48.778;9.252;2023-04-30T03:51:56;12.00;99.90
1123;DHT22;548;48.778;9.252;2023-04-30T03:54:23;12.00;99.90
1123;DHT22;548;48.778;9.252;2023-04-30T03:56:50;11.90;99.90
1123;DHT22;548;48.778;9.252;2023-04-30T03:59:17;12.00;99.90
1123;DHT22;548;48.778;9.252;2023-04-30T04:01:43;11.80;99.90
1123;DHT22;548;48.778;9.252;2023-04-30T04:04:10;11.80;99.90
1123;DHT22;548;48.778;9.252;2023-04-30T04:06:39;11.80;99.90
1123;DHT22;548;48.778;9.252;2023-04-30T04:09:05;11.70;99.90
1123;DHT22;548;48.778;9.252;2023-04-30T04:11:32;11.80;99.90
1123;DHT22;548;48.778;9.252;2023-04-30T04:13:59;12.00;99.90
1123;DHT22;548;48.778;9.252;2023-04-30T04:16:25;12.00;99.90
1123;DHT22;548;48.778;9.252;2023-04-30T04:18:52;12.10;99.90
1123;DHT22;548;48.778;9.252;2023-04-30T04:21:20;12.00;99.90
1123;DHT22;548;48.778;9.252;2023-04-30T04:23:48;12.10;99.90
1123;DHT22;548;48.778;9.252;2023-04-30T04:26:14;12.10;99.90
1123;DHT22;548;48.778;9.252;2023-04-30T04:28:44;12.20;99.90
1123;DHT22;548;48.778;9.252;2023-04-30T04:31:10;12.10;99.90
1123;DHT22;548;48.778;9.252;2023-04-30T04:33:37;12.20;99.90
1123;DHT22;548;48.778;9.252;2023-04-30T04:36:04;12.10;99.90
1123;DHT22;548;48.778;9.252;2023-04-30T04:38:31;12.00;99.90
1123;DHT22;548;48.778;9.252;2023-04-30T04:40:59;11.90;99.90
1123;DHT22;548;48.778;9.252;2023-04-30T04:43:26;12.00;99.90
1123;DHT22;548;48.778;9.252;2023-04-30T04:45:52;12.00;99.90
1123;DHT22;548;48.778;9.252;2023-04-30T04:48:19;12.20;99.90
1123;DHT22;548;48.778;9.252;2023-04-30T04:50:46;12.20;99.90
1123;DHT22;548;48.778;9.252;2023-04-30T04:53:12;12.30;99.90
1123;DHT22;548;48.778;9.252;2023-04-30T04:55:39;12.30;99.90
1123;DHT22;548;48.778;9.252;2023-04-30T04:58:07;12.20;99.90
1123;DHT22;548;48.778;9.252;2023-04-30T05:00:34;12.40;99.90
1123;DHT22;548;48.778;9.252;2023-04-30T05:03:00;12.50;99.90
1123;DHT22;548;48.778;9.252;2023-04-30T05:05:27;12.60;99.90
1123;DHT22;548;48.778;9.252;2023-04-30T05:07:54;12.80;99.90
1123;DHT22;548;48.778;9.252;2023-04-30T05:10:21;13.00;99.90
1123;DHT22;548;48.778;9.252;2023-04-30T05:12:47;13.00;99.90
1123;DHT22;548;48.778;9.252;2023-04-30T05:15:15;13.10;99.90
1123;DHT22;548;48.778;9.252;2023-04-30T05:17:42;13.10;99.90
1123;DHT22;548;48.778;9.252;2023-04-30T05:20:10;13.20;99.90
1123;DHT22;548;48.778;9.252;2023-04-30T05:22:37;13.20;99.90
1123;DHT22;548;48.778;9.252;2023-04-30T05:25:05;13.20;99.90
1123;DHT22;548;48.778;9.252;2023-04-30T05:27:32;13.30;99.90
1123;DHT22;548;48.778;9.252;2023-04-30T05:29:59;13.50;99.90
1123;DHT22;548;48.778;9.252;2023-04-30T05:32:27;13.50;99.90
1123;DHT22;548;48.778;9.252;2023-04-30T05:34:54;13.40;99.90
1123;DHT22;548;48.778;9.252;2023-04-30T05:37:20;13.40;99.90
1123;DHT22;548;48.778;9.252;2023-04-30T05:39:48;13.30;99.90
1123;DHT22;548;48.778;9.252;2023-04-30T05:42:15;13.40;99.90
1123;DHT22;548;48.778;9.252;2023-04-30T05:44:42;13.50;99.90
1123;DHT22;548;48.778;9.252;2023-04-30T05:47:09;13.70;99.90
1123;DHT22;548;48.778;9.252;2023-04-30T05:49:37;13.70;99.90
1123;DHT22;548;48.778;9.252;2023-04-30T05:52:04;13.60;99.90
1123;DHT22;548;48.778;9.252;2023-04-30T05:54:30;13.80;99.90
1123;DHT22;548;48.778;9.252;2023-04-30T05:56:57;14.00;99.90
1123;DHT22;548;48.778;9.252;2023-04-30T05:59:24;14.10;99.90
1123;DHT22;548;48.778;9.252;2023-04-30T06:01:51;14.00;99.90
1123;DHT22;548;48.778;9.252;2023-04-30T06:04:17;14.00;99.90
1123;DHT22;548;48.778;9.252;2023-04-30T06:06:45;14.10;99.90
1123;DHT22;548;48.778;9.252;2023-04-30T06:09:12;14.30;99.90
1123;DHT22;548;48.778;9.252;2023-04-30T06:11:39;14.80;99.90
1123;DHT22;548;48.778;9.252;2023-04-30T06:14:05;15.10;99.90
1123;DHT22;548;48.778;9.252;2023-04-30T06:16:32;15.30;99.90
1123;DHT22;548;48.778;9.252;2023-04-30T06:18:59;15.40;99.90
1123;DHT22;548;48.778;9.252;2023-04-30T06:21:25;15.40;99.90
1123;DHT22;548;48.778;9.252;2023-04-30T06:23:53;15.50;99.90
1123;DHT22;548;48.778;9.252;2023-04-30T06:26:20;15.50;99.90
1123;DHT22;548;48.778;9.252;2023-04-30T06:28:47;15.50;99.90
1123;DHT22;548;48.778;9.252;2023-04-30T06:31:14;15.30;99.90
1123;DHT22;548;48.778;9.252;2023-04-30T06:33:40;14.80;99.90
1123;DHT22;548;48.778;9.252;2023-04-30T06:36:07;14.60;99.90
1123;DHT22;548;48.778;9.252;2023-04-30T06:38:34;14.60;99.90
1123;DHT22;548;48.778;9.252;2023-04-30T06:41:02;15.00;99.90
1123;DHT22;548;48.778;9.252;2023-04-30T06:43:29;15.20;99.90
1123;DHT22;548;48.778;9.252;2023-04-30T06:45:55;15.30;99.90
1123;DHT22;548;48.778;9.252;2023-04-30T06:48:22;15.50;99.90
1123;DHT22;548;48.778;9.252;2023-04-30T06:50:49;15.50;99.90
1123;DHT22;548;48.778;9.252;2023-04-30T06:53:15;15.60;99.90
1123;DHT22;548;48.778;9.252;2023-04-30T06:55:44;15.80;99.90
1123;DHT22;548;48.778;9.252;2023-04-30T06:58:12;15.90;99.90
1123;DHT22;548;48.778;9.252;2023-04-30T07:00:39;16.30;99.90
1123;DHT22;548;48.778;9.252;2023-04-30T07:03:06;16.50;99.90
1123;DHT22;548;48.778;9.252;2023-04-30T07:05:33;17.00;99.90
1123;DHT22;548;48.778;9.252;2023-04-30T07:08:00;17.30;99.90
1123;DHT22;548;48.778;9.252;2023-04-30T07:10:28;17.60;99.90
1123;DHT22;548;48.778;9.252;2023-04-30T07:12:54;17.80;99.70
1123;DHT22;548;48.778;9.252;2023-04-30T07:15:22;17.80;99.40
1123;DHT22;548;48.778;9.252;2023-04-30T07:17:49;17.30;99.90
1123;DHT22;548;48.778;9.252;2023-04-30T07:20:16;17.10;99.90
1123;DHT22;548;48.778;9.252;2023-04-30T07:22:43;16.80;99.90
1123;DHT22;548;48.778;9.252;2023-04-30T07:25:10;16.50;99.90
1123;DHT22;548;48.778;9.252;2023-04-30T07:27:37;16.50;99.90
1123;DHT22;548;48.778;9.252;2023-04-30T07:30:05;16.60;99.90
1123;DHT22;548;48.778;9.252;2023-04-30T07:32:35;17.00;99.90
1123;DHT22;548;48.778;9.252;2023-04-30T07:35:02;17.10;99.90
1123;DHT22;548;48.778;9.252;2023-04-30T07:37:29;16.80;99.90
1123;DHT22;548;48.778;9.252;2023-04-30T07:39:56;17.00;99.90
1123;DHT22;548;48.778;9.252;2023-04-30T07:42:22;17.30;99.90
1123;DHT22;548;48.778;9.252;2023-04-30T07:44:49;18.00;99.50
1123;DHT22;548;48.778;9.252;2023-04-30T07:47:17;18.60;98.20
1123;DHT22;548;48.778;9.252;2023-04-30T07:49:45;18.80;97.50
1123;DHT22;548;48.778;9.252;2023-04-30T07:52:12;19.10;95.90
1123;DHT22;548;48.778;9.252;2023-04-30T07:54:39;18.80;95.30
1123;DHT22;548;48.778;9.252;2023-04-30T07:57:06;18.90;95.90
1123;DHT22;548;48.778;9.252;2023-04-30T07:59:32;18.80;94.80
1123;DHT22;548;48.778;9.252;2023-04-30T08:02:00;18.80;95.00
1123;DHT22;548;48.778;9.252;2023-04-30T08:04:26;18.80;94.50
1123;DHT22;548;48.778;9.252;2023-04-30T08:06:54;18.80;95.10
1123;DHT22;548;48.778;9.252;2023-04-30T08:09:21;18.90;94.20
1123;DHT22;548;48.778;9.252;2023-04-30T08:11:48;19.00;94.10
1123;DHT22;548;48.778;9.252;2023-04-30T08:14:14;19.40;93.20
1123;DHT22;548;48.778;9.252;2023-04-30T08:16:41;19.90;92.80
1123;DHT22;548;48.778;9.252;2023-04-30T08:19:08;19.70;92.50
1123;DHT22;548;48.778;9.252;2023-04-30T08:21:34;19.70;91.90
1123;DHT22;548;48.778;9.252;2023-04-30T08:24:03;20.20;92.60
1123;DHT22;548;48.778;9.252;2023-04-30T08:26:29;20.40;89.70
1123;DHT22;548;48.778;9.252;2023-04-30T08:28:56;20.40;88.20
1123;DHT22;548;48.778;9.252;2023-04-30T08:31:23;20.30;87.40
1123;DHT22;548;48.778;9.252;2023-04-30T08:33:50;20.60;88.00
1123;DHT22;548;48.778;9.252;2023-04-30T08:36:16;20.50;85.30
1123;DHT22;548;48.778;9.252;2023-04-30T08:38:44;20.40;84.80
1123;DHT22;548;48.778;9.252;2023-04-30T08:41:13;20.50;83.50
1123;DHT22;548;48.778;9.252;2023-04-30T08:43:41;20.50;83.30
1123;DHT22;548;48.778;9.252;2023-04-30T08:46:10;19.60;82.20
1123;DHT22;548;48.778;9.252;2023-04-30T08:48:38;18.80;84.90
1123;DHT22;548;48.778;9.252;2023-04-30T08:51:06;18.70;86.80
1123;DHT22;548;48.778;9.252;2023-04-30T08:53:35;18.70;86.10
1123;DHT22;548;48.778;9.252;2023-04-30T08:56:02;18.80;87.70
1123;DHT22;548;48.778;9.252;2023-04-30T08:58:30;19.70;87.10
1123;DHT22;548;48.778;9.252;2023-04-30T09:00:57;19.50;83.90
1123;DHT22;548;48.778;9.252;2023-04-30T09:03:25;19.00;86.50
1123;DHT22;548;48.778;9.252;2023-04-30T09:05:53;19.00;89.30
1123;DHT22;548;48.778;9.252;2023-04-30T09:08:40;19.10;83.40
1123;DHT22;548;48.778;9.252;2023-04-30T09:11:20;18.90;86.00
1123;DHT22;548;48.778;9.252;2023-04-30T09:13:49;18.80;86.70
1123;DHT22;548;48.778;9.252;2023-04-30T09:16:17;18.80;85.70
1123;DHT22;548;48.778;9.252;2023-04-30T09:18:44;19.00;84.40
1123;DHT22;548;48.778;9.252;2023-04-30T09:21:10;19.10;84.90
1123;DHT22;548;48.778;9.252;2023-04-30T09:23:53;19.40;84.10
1123;DHT22;548;48.778;9.252;2023-04-30T09:26:21;19.00;82.30
1123;DHT22;548;48.778;9.252;2023-04-30T09:28:57;19.10;83.80
1123;DHT22;548;48.778;9.252;2023-04-30T09:31:24;19.10;81.50
1123;DHT22;548;48.778;9.252;2023-04-30T09:33:52;19.00;80.60
1123;DHT22;548;48.778;9.252;2023-04-30T09:36:18;19.20;80.40
1123;DHT22;548;48.778;9.252;2023-04-30T09:38:45;19.40;80.10
1123;DHT22;548;48.778;9.252;2023-04-30T09:41:21;19.10;80.00
1123;DHT22;548;48.778;9.252;2023-04-30T09:43:49;19.20;80.90
1123;DHT22;548;48.778;9.252;2023-04-30T09:46:19;19.20;79.50
1123;DHT22;548;48.778;9.252;2023-04-30T09:48:55;19.50;79.80
1123;DHT22;548;48.778;9.252;2023-04-30T09:51:22;19.50;79.70
1123;DHT22;548;48.778;9.252;2023-04-30T09:53:50;19.30;78.60
1123;DHT22;548;48.778;9.252;2023-04-30T09:56:19;19.30;78.60
1123;DHT22;548;48.778;9.252;2023-04-30T09:58:49;19.10;78.30
1123;DHT22;548;48.778;9.252;2023-04-30T10:01:18;19.20;78.90
1123;DHT22;548;48.778;9.252;2023-04-30T10:03:46;19.60;77.80
1123;DHT22;548;48.778;9.252;2023-04-30T10:06:14;20.00;78.30
1123;DHT22;548;48.778;9.252;2023-04-30T10:08:43;19.80;74.30
1123;DHT22;548;48.778;9.252;2023-04-30T10:11:13;19.50;75.80
1123;DHT22;548;48.778;9.252;2023-04-30T10:13:44;19.10;76.90
1123;DHT22;548;48.778;9.252;2023-04-30T10:16:17;18.80;77.10
1123;DHT22;548;48.778;9.252;2023-04-30T10:18:49;18.80;78.10
1123;DHT22;548;48.778;9.252;2023-04-30T10:21:19;18.70;78.60
1123;DHT22;548;48.778;9.252;2023-04-30T10:23:48;18.60;77.90
1123;DHT22;548;48.778;9.252;2023-04-30T10:26:15;18.40;78.20
1123;DHT22;548;48.778;9.252;2023-04-30T10:28:43;18.60;79.00
1123;DHT22;548;48.778;9.252;2023-04-30T10:31:11;18.90;79.70
1123;DHT22;548;48.778;9.252;2023-04-30T10:33:45;19.00;79.00
1123;DHT22;548;48.778;9.252;2023-04-30T10:36:22;19.10;79.90
1123;DHT22;548;48.778;9.252;2023-04-30T10:38:50;18.80;78.40
1123;DHT22;548;48.778;9.252;2023-04-30T10:41:19;18.90;77.70
1123;DHT22;548;48.778;9.252;2023-04-30T10:43:46;19.00;78.30
1123;DHT22;548;48.778;9.252;2023-04-30T10:46:21;19.10;78.40
1123;DHT22;548;48.778;9.252;2023-04-30T10:48:48;19.40;77.80
1123;DHT22;548;48.778;9.252;2023-04-30T10:51:16;19.60;78.50
1123;DHT22;548;48.778;9.252;2023-04-30T10:53:43;19.40;77.50
1123;DHT22;548;48.778;9.252;2023-04-30T10:56:11;19.20;79.20
1123;DHT22;548;48.778;9.252;2023-04-30T10:58:38;18.90;80.20
1123;DHT22;548;48.778;9.252;2023-04-30T11:01:07;18.90;79.90
1123;DHT22;548;48.778;9.252;2023-04-30T11:03:36;18.90;78.40
1123;DHT22;548;48.778;9.252;2023-04-30T11:06:11;18.70;78.80
1123;DHT22;548;48.778;9.252;2023-04-30T11:08:43;18.90;78.80
1123;DHT22;548;48.778;9.252;2023-04-30T11:11:10;19.00;77.50
1123;DHT22;548;48.778;9.252;2023-04-30T11:13:40;19.20;77.50
1123;DHT22;548;48.778;9.252;2023-04-30T11:16:07;19.00;76.80
1123;DHT22;548;48.778;9.252;2023-04-30T11:18:40;19.40;77.20
1123;DHT22;548;48.778;9.252;2023-04-30T11:21:07;19.60;77.70
1123;DHT22;548;48.778;9.252;2023-04-30T11:23:35;19.70;76.50
1123;DHT22;548;48.778;9.252;2023-04-30T11:26:03;19.50;73.60
1123;DHT22;548;48.778;9.252;2023-04-30T11:28:32;19.30;75.20
1123;DHT22;548;48.778;9.252;2023-04-30T11:31:00;19.40;78.00
1123;DHT22;548;48.778;9.252;2023-04-30T11:33:28;19.40;79.30
1123;DHT22;548;48.778;9.252;2023-04-30T11:35:56;19.60;75.40
1123;DHT22;548;48.778;9.252;2023-04-30T11:38:26;19.80;76.00
1123;DHT22;548;48.778;9.252;2023-04-30T11:40:53;20.20;75.70
1123;DHT22;548;48.778;9.252;2023-04-30T11:43:22;19.80;74.80
1123;DHT22;548;48.778;9.252;2023-04-30T11:46:04;19.70;76.10
1123;DHT22;548;48.778;9.252;2023-04-30T11:48:32;19.80;78.80
1123;DHT22;548;48.778;9.252;2023-04-30T11:51:02;20.10;77.30
1123;DHT22;548;48.778;9.252;2023-04-30T11:53:29;20.10;74.20
1123;DHT22;548;48.778;9.252;2023-04-30T11:56:01;20.10;74.50
1123;DHT22;548;48.778;9.252;2023-04-30T11:58:33;20.40;72.60
1123;DHT22;548;48.778;9.252;2023-04-30T12:01:02;20.30;74.50
1123;DHT22;548;48.778;9.252;2023-04-30T12:03:29;20.00;72.60
1123;DHT22;548;48.778;9.252;2023-04-30T12:05:56;19.80;74.10
1123;DHT22;548;48.778;9.252;2023-04-30T12:08:23;19.80;73.20
1123;DHT22;548;48.778;9.252;2023-04-30T12:10:49;19.90;73.00
1123;DHT22;548;48.778;9.252;2023-04-30T12:13:16;20.10;73.50
1123;DHT22;548;48.778;9.252;2023-04-30T12:15:56;20.00;74.80
1123;DHT22;548;48.778;9.252;2023-04-30T12:18:23;19.70;73.90
1123;DHT22;548;48.778;9.252;2023-04-30T12:20:50;19.80;76.60
1123;DHT22;548;48.778;9.252;2023-04-30T12:23:17;19.50;74.80
1123;DHT22;548;48.778;9.252;2023-04-30T12:25:44;19.40;76.00
1123;DHT22;548;48.778;9.252;2023-04-30T12:28:12;19.60;76.20
1123;DHT22;548;48.778;9.252;2023-04-30T12:30:39;19.60;75.00
1123;DHT22;548;48.778;9.252;2023-04-30T12:33:09;19.40;76.00
1123;DHT22;548;48.778;9.252;2023-04-30T12:35:36;19.40;75.80
1123;DHT22;548;48.778;9.252;2023-04-30T12:38:07;19.50;76.30
1123;DHT22;548;48.778;9.252;2023-04-30T12:40:34;19.40;76.10
1123;DHT22;548;48.778;9.252;2023-04-30T12:43:02;19.50;76.60
1123;DHT22;548;48.778;9.252;2023-04-30T12:45:46;19.50;76.20
1123;DHT22;548;48.778;9.252;2023-04-30T12:48:15;19.20;78.30
1123;DHT22;548;48.778;9.252;2023-04-30T12:50:41;19.20;78.20
1123;DHT22;548;48.778;9.252;2023-04-30T12:53:12;19.00;77.70
1123;DHT22;548;48.778;9.252;2023-04-30T12:55:39;19.40;79.00
1123;DHT22;548;48.778;9.252;2023-04-30T12:58:07;19.80;77.70
1123;DHT22;548;48.778;9.252;2023-04-30T13:00:45;19.70;77.00
1123;DHT22;548;48.778;9.252;2023-04-30T13:03:12;19.80;78.50
1123;DHT22;548;48.778;9.252;2023-04-30T13:05:40;19.90;78.40
1123;DHT22;548;48.778;9.252;2023-04-30T13:08:07;20.40;77.20
1123;DHT22;548;48.778;9.252;2023-04-30T13:10:34;20.00;75.60
1123;DHT22;548;48.778;9.252;2023-04-30T13:13:01;20.00;76.80
1123;DHT22;548;48.778;9.252;2023-04-30T13:15:27;19.80;77.30
1123;DHT22;548;48.778;9.252;2023-04-30T13:17:54;20.30;76.90
1123;DHT22;548;48.778;9.252;2023-04-30T13:20:21;21.20;74.30
1123;DHT22;548;48.778;9.252;2023-04-30T13:22:50;22.10;73.80
1123;DHT22;548;48.778;9.252;2023-04-30T13:25:17;22.80;70.00
1123;DHT22;548;48.778;9.252;2023-04-30T13:27:44;23.00;68.90
1123;DHT22;548;48.778;9.252;2023-04-30T13:30:11;22.10;67.60
1123;DHT22;548;48.778;9.252;2023-04-30T13:32:38;21.00;69.20
1123;DHT22;548;48.778;9.252;2023-04-30T13:35:05;20.60;72.20
1123;DHT22;548;48.778;9.252;2023-04-30T13:37:32;20.30;73.10
1123;DHT22;548;48.778;9.252;2023-04-30T13:40:01;20.50;73.50
1123;DHT22;548;48.778;9.252;2023-04-30T13:42:29;21.00;72.30
1123;DHT22;548;48.778;9.252;2023-04-30T13:44:56;21.30;70.80
1123;DHT22;548;48.778;9.252;2023-04-30T13:47:23;21.10;70.00
1123;DHT22;548;48.778;9.252;2023-04-30T13:49:49;20.90;71.20
1123;DHT22;548;48.778;9.252;2023-04-30T13:52:16;20.90;70.90
1123;DHT22;548;48.778;9.252;2023-04-30T13:54:43;20.80;71.40
1123;DHT22;548;48.778;9.252;2023-04-30T13:57:11;20.80;72.80
1123;DHT22;548;48.778;9.252;2023-04-30T13:59:37;20.50;72.80
1123;DHT22;548;48.778;9.252;2023-04-30T14:02:04;20.20;72.60
1123;DHT22;548;48.778;9.252;2023-04-30T14:04:31;19.90;72.30
1123;DHT22;548;48.778;9.252;2023-04-30T14:06:58;19.60;73.20
1123;DHT22;548;48.778;9.252;2023-04-30T14:09:25;19.60;73.40
1123;DHT22;548;48.778;9.252;2023-04-30T14:11:52;19.90;73.00
1123;DHT22;548;48.778;9.252;2023-04-30T14:14:21;19.90;74.80
1123;DHT22;548;48.778;9.252;2023-04-30T14:16:48;19.50;73.70
1123;DHT22;548;48.778;9.252;2023-04-30T14:19:15;19.40;73.20
1123;DHT22;548;48.778;9.252;2023-04-30T14:21:41;19.60;73.60
1123;DHT22;548;48.778;9.252;2023-04-30T14:24:08;20.00;73.10
1123;DHT22;548;48.778;9.252;2023-04-30T14:26:37;20.40;74.30
1123;DHT22;548;48.778;9.252;2023-04-30T14:29:05;20.20;71.40
1123;DHT22;548;48.778;9.252;2023-04-30T14:31:33;19.80;72.80
1123;DHT22;548;48.778;9.252;2023-04-30T14:34:00;19.50;72.40
1123;DHT22;548;48.778;9.252;2023-04-30T14:36:27;19.50;72.80
1123;DHT22;548;48.778;9.252;2023-04-30T14:38:53;19.20;72.80
1123;DHT22;548;48.778;9.252;2023-04-30T14:41:21;19.40;74.70
1123;DHT22;548;48.778;9.252;2023-04-30T14:43:48;19.70;73.40
1123;DHT22;548;48.778;9.252;2023-04-30T14:46:17;19.80;73.10
1123;DHT22;548;48.778;9.252;2023-04-30T14:48:45;19.70;72.00
1123;DHT22;548;48.778;9.252;2023-04-30T14:51:12;19.60;72.90
1123;DHT22;548;48.778;9.252;2023-04-30T14:53:38;19.70;73.10
1123;DHT22;548;48.778;9.252;2023-04-30T14:56:05;19.70;73.30
1123;DHT22;548;48.778;9.252;2023-04-30T14:58:32;19.90;74.10
1123;DHT22;548;48.778;9.252;2023-04-30T15:00:59;19.80;73.00
1123;DHT22;548;48.778;9.252;2023-04-30T15:03:26;19.40;74.40
1123;DHT22;548;48.778;9.252;2023-04-30T15:05:54;19.40;74.60
1123;DHT22;548;48.778;9.252;2023-04-30T15:08:21;19.40;74.20
1123;DHT22;548;48.778;9.252;2023-04-30T15:10:48;19.50;73.80
1123;DHT22;548;48.778;9.252;2023-04-30T15:13:14;19.50;75.10
1123;DHT22;548;48.778;9.252;2023-04-30T15:15:41;19.60;74.80
1123;DHT22;548;48.778;9.252;2023-04-30T15:18:08;19.50;73.30
1123;DHT22;548;48.778;9.252;2023-04-30T15:20:35;19.50;75.00
1123;DHT22;548;48.778;9.252;2023-04-30T15:23:03;19.30;75.10
1123;DHT22;548;48.778;9.252;2023-04-30T15:25:30;19.30;74.50
1123;DHT22;548;48.778;9.252;2023-04-30T15:27:57;19.50;74.50
1123;DHT22;548;48.778;9.252;2023-04-30T15:30:24;19.50;74.30
1123;DHT22;548;48.778;9.252;2023-04-30T15:32:50;19.50;74.40
1123;DHT22;548;48.778;9.252;2023-04-30T15:35:17;19.40;76.00
1123;DHT22;548;48.778;9.252;2023-04-30T15:37:44;19.40;73.70
1123;DHT22;548;48.778;9.252;2023-04-30T15:40:12;19.30;75.90
1123;DHT22;548;48.778;9.252;2023-04-30T15:42:39;19.50;74.20
1123;DHT22;548;48.778;9.252;2023-04-30T15:45:07;19.80;73.00
1123;DHT22;548;48.778;9.252;2023-04-30T15:47:34;19.90;73.80
1123;DHT22;548;48.778;9.252;2023-04-30T15:50:00;19.80;74.40
1123;DHT22;548;48.778;9.252;2023-04-30T15:52:27;19.50;74.70
1123;DHT22;548;48.778;9.252;2023-04-30T15:54:54;19.50;76.80
1123;DHT22;548;48.778;9.252;2023-04-30T15:57:22;19.30;75.60
1123;DHT22;548;48.778;9.252;2023-04-30T15:59:49;18.70;74.70
1123;DHT22;548;48.778;9.252;2023-04-30T16:02:16;18.60;76.20
1123;DHT22;548;48.778;9.252;2023-04-30T16:04:42;18.40;75.60
1123;DHT22;548;48.778;9.252;2023-04-30T16:07:10;18.30;77.10
1123;DHT22;548;48.778;9.252;2023-04-30T16:09:36;18.20;76.30
1123;DHT22;548;48.778;9.252;2023-04-30T16:12:03;18.20;78.30
1123;DHT22;548;48.778;9.252;2023-04-30T16:14:32;18.10;78.40
1123;DHT22;548;48.778;9.252;2023-04-30T16:16:59;18.10;78.40
1123;DHT22;548;48.778;9.252;2023-04-30T16:19:26;18.00;77.90
1123;DHT22;548;48.778;9.252;2023-04-30T16:21:53;18.10;78.70
1123;DHT22;548;48.778;9.252;2023-04-30T16:24:19;18.20;78.90
1123;DHT22;548;48.778;9.252;2023-04-30T16:26:46;18.40;79.50
1123;DHT22;548;48.778;9.252;2023-04-30T16:29:13;18.30;78.60
1123;DHT22;548;48.778;9.252;2023-04-30T16:31:42;18.30;78.20
1123;DHT22;548;48.778;9.252;2023-04-30T16:34:08;18.10;78.60
1123;DHT22;548;48.778;9.252;2023-04-30T16:36:36;18.00;78.90
1123;DHT22;548;48.778;9.252;2023-04-30T16:39:03;18.00;79.70
1123;DHT22;548;48.778;9.252;2023-04-30T16:41:29;18.00;80.10
1123;DHT22;548;48.778;9.252;2023-04-30T16:43:56;17.90;78.80
1123;DHT22;548;48.778;9.252;2023-04-30T16:46:23;17.90;79.30
1123;DHT22;548;48.778;9.252;2023-04-30T16:48:52;17.90;79.50
1123;DHT22;548;48.778;9.252;2023-04-30T16:51:18;17.90;79.60
1123;DHT22;548;48.778;9.252;2023-04-30T16:53:45;17.80;80.20
1123;DHT22;548;48.778;9.252;2023-04-30T16:56:12;17.70;79.80
1123;DHT22;548;48.778;9.252;2023-04-30T16:58:38;17.60;80.00
1123;DHT22;548;48.778;9.252;2023-04-30T17:01:05;17.70;80.90
1123;DHT22;548;48.778;9.252;2023-04-30T17:03:32;17.70;80.50
1123;DHT22;548;48.778;9.252;2023-04-30T17:06:00;17.60;80.80
1123;DHT22;548;48.778;9.252;2023-04-30T17:08:27;17.70;81.00
1123;DHT22;548;48.778;9.252;2023-04-30T17:10:54;17.60;81.10
1123;DHT22;548;48.778;9.252;2023-04-30T17:13:21;17.70;81.30
1123;DHT22;548;48.778;9.252;2023-04-30T17:15:48;17.50;81.60
1123;DHT22;548;48.778;9.252;2023-04-30T17:18:14;17.50;82.70
1123;DHT22;548;48.778;9.252;2023-04-30T17:20:41;17.50;83.50
1123;DHT22;548;48.778;9.252;2023-04-30T17:23:11;17.40;82.30
1123;DHT22;548;48.778;9.252;2023-04-30T17:25:38;17.40;82.40
1123;DHT22;548;48.778;9.252;2023-04-30T17:28:04;17.30;82.30
1123;DHT22;548;48.778;9.252;2023-04-30T17:30:31;17.20;83.30
1123;DHT22;548;48.778;9.252;2023-04-30T17:32:58;17.10;84.30
1123;DHT22;548;48.778;9.252;2023-04-30T17:35:25;17.10;85.50
1123;DHT22;548;48.778;9.252;2023-04-30T17:37:52;17.10;84.70
1123;DHT22;548;48.778;9.252;2023-04-30T17:40:20;17.00;85.30
1123;DHT22;548;48.778;9.252;2023-04-30T17:42:47;16.90;85.60
1123;DHT22;548;48.778;9.252;2023-04-30T17:45:15;16.90;85.90
1123;DHT22;548;48.778;9.252;2023-04-30T17:47:43;16.80;85.80
1123;DHT22;548;48.778;9.252;2023-04-30T17:50:09;16.70;86.50
1123;DHT22;548;48.778;9.252;2023-04-30T17:52:36;16.70;88.30
1123;DHT22;548;48.778;9.252;2023-04-30T17:55:04;16.60;87.20
1123;DHT22;548;48.778;9.252;2023-04-30T17:57:33;16.50;87.60
1123;DHT22;548;48.778;9.252;2023-04-30T18:00:00;16.50;87.90
1123;DHT22;548;48.778;9.252;2023-04-30T18:02:26;16.40;88.80
1123;DHT22;548;48.778;9.252;2023-04-30T18:04:53;16.30;90.10
1123;DHT22;548;48.778;9.252;2023-04-30T18:07:20;16.20;90.00
1123;DHT22;548;48.778;9.252;2023-04-30T18:09:46;16.10;90.50
1123;DHT22;548;48.778;9.252;2023-04-30T18:12:13;16.10;90.80
1123;DHT22;548;48.778;9.252;2023-04-30T18:14:42;16.00;90.60
1123;DHT22;548;48.778;9.252;2023-04-30T18:17:08;15.90;91.20
1123;DHT22;548;48.778;9.252;2023-04-30T18:19:35;15.70;91.10
1123;DHT22;548;48.778;9.252;2023-04-30T18:22:08;15.70;91.60
1123;DHT22;548;48.778;9.252;2023-04-30T18:24:34;15.60;91.90
1123;DHT22;548;48.778;9.252;2023-04-30T18:27:02;15.50;92.90
1123;DHT22;548;48.778;9.252;2023-04-30T18:29:29;15.40;93.90
1123;DHT22;548;48.778;9.252;2023-04-30T18:31:57;15.30;93.30
1123;DHT22;548;48.778;9.252;2023-04-30T18:34:24;15.20;94.60
1123;DHT22;548;48.778;9.252;2023-04-30T18:36:52;15.10;95.30
1123;DHT22;548;48.778;9.252;2023-04-30T18:39:19;15.00;95.90
1123;DHT22;548;48.778;9.252;2023-04-30T18:41:46;14.90;96.60
1123;DHT22;548;48.778;9.252;2023-04-30T18:44:13;14.70;97.70
1123;DHT22;548;48.778;9.252;2023-04-30T18:46:40;14.60;98.20
1123;DHT22;548;48.778;9.252;2023-04-30T18:49:08;14.50;99.10
1123;DHT22;548;48.778;9.252;2023-04-30T18:51:35;14.50;99.90
1123;DHT22;548;48.778;9.252;2023-04-30T18:54:02;14.30;99.90
1123;DHT22;548;48.778;9.252;2023-04-30T18:56:29;14.20;99.90
1123;DHT22;548;48.778;9.252;2023-04-30T18:58:55;14.10;99.90